createdAt,value
2023-05-06T00:04:57.252Z,99426.66
2023-05-06T00:10:00.193Z,99442.44
2023-05-06T00:15:23.116Z,99439.72
2023-05-06T00:20:26.095Z,99442.50
2023-05-06T00:25:29.340Z,99444.78
2023-05-06T00:30:32.241Z,99452.88
2023-05-06T00:35:35.150Z,99457.59
2023-05-06T00:40:38.144Z,99432.34
2023-05-06T00:45:41.166Z,99394.56
2023-05-06T00:50:45.851Z,99383.13
2023-05-06T00:55:50.385Z,99354.44
2023-05-06T01:00:54.123Z,99347.94
2023-05-06T01:06:21.431Z,99362.88
2023-05-06T01:11:34.231Z,99375.19
2023-05-06T01:16:40.136Z,99335.75
2023-05-06T01:21:46.601Z,99355.31
2023-05-06T01:26:50.031Z,99334.66
2023-05-06T01:31:57.549Z,99341.56
2023-05-06T01:37:22.624Z,99342.34
2023-05-06T01:42:27.341Z,99352.28
2023-05-06T01:47:30.480Z,99372.97
2023-05-06T01:52:33.544Z,99415.88
2023-05-06T01:57:36.713Z,99409.38
2023-05-06T02:02:58.196Z,99425.06
2023-05-06T02:08:01.697Z,99412.03
2023-05-06T02:13:05.423Z,99435.81
2023-05-06T02:18:26.620Z,99435.03
2023-05-06T02:23:30.184Z,99438.13
2023-05-06T02:28:33.546Z,99429.31
2023-05-06T02:33:36.728Z,99435.84
2023-05-06T02:38:40.004Z,99476.03
2023-05-06T02:43:42.939Z,99486.00
2023-05-06T02:49:04.651Z,99486.75
2023-05-06T02:54:07.818Z,99459.94
2023-05-06T02:59:10.792Z,99489.78
2023-05-06T03:04:32.648Z,99487.81
2023-05-06T03:09:35.728Z,99500.41
2023-05-06T03:14:38.805Z,99475.84
2023-05-06T03:19:42.030Z,99474.31
2023-05-06T03:24:47.621Z,99481.56
2023-05-06T03:29:51.858Z,99478.50
2023-05-06T03:34:56.705Z,99466.31
2023-05-06T03:40:01.034Z,99459.84
2023-05-06T03:45:07.899Z,99483.94
2023-05-06T03:50:29.581Z,99488.53
2023-05-06T03:55:33.218Z,99454.84
2023-05-06T04:00:37.001Z,99461.00
2023-05-06T04:05:40.104Z,99476.75
2023-05-06T04:10:44.554Z,99500.81
2023-05-06T04:16:03.065Z,99514.22
2023-05-06T04:21:24.762Z,99506.19
2023-05-06T04:26:34.345Z,99501.47
2023-05-06T04:31:38.206Z,99521.75
2023-05-06T04:36:44.406Z,99513.72
2023-05-06T04:42:09.756Z,99527.91
2023-05-06T04:47:19.628Z,99526.31
2023-05-06T04:52:26.519Z,99552.31
2023-05-06T04:57:31.908Z,99548.84
2023-05-06T05:02:35.392Z,99535.00
2023-05-06T05:07:57.105Z,99542.31
2023-05-06T05:13:02.096Z,99544.53
2023-05-06T05:18:06.367Z,99548.66
2023-05-06T05:23:10.562Z,99547.19
2023-05-06T05:28:14.439Z,99539.63
2023-05-06T05:33:19.540Z,99543.41
2023-05-06T05:38:23.968Z,99544.59
2023-05-06T05:43:27.254Z,99549.56
2023-05-06T05:48:48.757Z,99566.47
2023-05-06T05:53:53.551Z,99564.88
2023-05-06T05:58:59.058Z,99554.22
2023-05-06T06:04:02.314Z,99566.84
2023-05-06T06:09:06.020Z,99583.69
2023-05-06T06:14:09.316Z,99578.41
2023-05-06T06:19:14.329Z,99597.91
2023-05-06T06:24:17.470Z,99599.16
2023-05-06T06:29:20.543Z,99585.38
2023-05-06T06:34:24.426Z,99587.34
2023-05-06T06:39:27.486Z,99583.13
2023-05-06T06:44:31.253Z,99590.50
2023-05-06T06:49:34.523Z,99605.09
2023-05-06T06:54:40.672Z,99608.56
2023-05-06T06:59:43.684Z,99623.91
2023-05-06T07:04:46.779Z,99629.28
2023-05-06T07:09:49.764Z,99628.88
2023-05-06T07:14:52.875Z,99615.47
2023-05-06T07:19:55.995Z,99634.63
2023-05-06T07:24:59.420Z,99638.88
2023-05-06T07:30:02.607Z,99638.44
2023-05-06T07:35:07.726Z,99648.38
2023-05-06T07:40:10.920Z,99638.69
2023-05-06T07:45:13.925Z,99635.03
2023-05-06T07:50:17.232Z,99640.06
2023-05-06T07:55:20.247Z,99648.06
2023-05-06T08:00:23.557Z,99656.00
2023-05-06T08:05:26.533Z,99672.59
2023-05-06T08:10:29.426Z,99677.81
2023-05-06T08:15:32.561Z,99671.84
2023-05-06T08:20:35.471Z,99673.28
2023-05-06T08:25:38.440Z,99665.41
2023-05-06T08:30:41.402Z,99672.72
2023-05-06T08:35:45.303Z,99668.34
2023-05-06T08:40:49.207Z,99675.56
2023-05-06T08:45:52.424Z,99679.63
2023-05-06T08:50:57.704Z,99677.13
2023-05-06T08:56:08.929Z,99683.84
2023-05-06T09:01:30.595Z,99684.34
2023-05-06T09:06:34.472Z,99684.28
2023-05-06T09:11:41.008Z,99687.97
2023-05-06T09:16:47.426Z,99691.25
2023-05-06T09:21:51.787Z,99686.03
2023-05-06T09:26:57.095Z,99685.94
2023-05-06T09:32:06.120Z,99694.00
2023-05-06T09:37:09.416Z,99690.19
2023-05-06T09:42:12.438Z,99714.47
2023-05-06T09:47:15.695Z,99700.16
2023-05-06T09:52:21.008Z,99701.03
2023-05-06T09:57:24.357Z,99707.31
2023-05-06T10:02:28.879Z,99696.44
2023-05-06T10:07:32.956Z,99706.91
2023-05-06T10:12:39.679Z,99732.69
2023-05-06T10:17:48.199Z,99717.50
2023-05-06T10:23:12.901Z,99710.56
2023-05-06T10:28:21.493Z,99713.38
2023-05-06T10:33:31.636Z,99723.09
2023-05-06T10:39:00.328Z,99732.31
2023-05-06T10:44:03.423Z,99728.66
2023-05-06T10:49:08.768Z,99724.88
2023-05-06T10:54:19.330Z,99749.31
2023-05-06T10:59:24.934Z,99737.69
2023-05-06T11:04:30.541Z,99728.41
2023-05-06T11:09:33.442Z,99742.34
2023-05-06T11:14:37.922Z,99737.56
2023-05-06T11:19:41.099Z,99733.22
2023-05-06T11:24:44.405Z,99742.34
2023-05-06T11:29:47.214Z,99730.13
2023-05-06T11:34:50.259Z,99719.94
2023-05-06T11:39:53.713Z,99745.75
2023-05-06T11:45:02.018Z,99729.78
2023-05-06T11:50:08.355Z,99726.53
2023-05-06T11:55:12.183Z,99704.41
2023-05-06T12:00:15.866Z,99730.25
2023-05-06T12:05:23.374Z,99726.84
2023-05-06T12:10:26.385Z,99737.00
2023-05-06T12:15:30.093Z,99721.03
2023-05-06T12:20:33.144Z,99724.19
2023-05-06T12:25:36.344Z,99718.56
2023-05-06T12:30:39.253Z,99723.69
2023-05-06T12:35:42.220Z,99731.09
2023-05-06T12:40:54.131Z,99727.63
2023-05-06T12:46:07.905Z,99723.19
2023-05-06T12:51:21.727Z,99714.72
2023-05-06T12:56:24.778Z,99715.34
2023-05-06T13:01:27.940Z,99715.34
2023-05-06T13:06:31.840Z,99730.41
2023-05-06T13:11:34.699Z,99723.41
2023-05-06T13:16:38.087Z,99731.66
2023-05-06T13:21:41.405Z,99730.28
2023-05-06T13:26:44.419Z,99724.78
2023-05-06T13:31:47.435Z,99742.63
2023-05-06T13:36:50.998Z,99733.28
2023-05-06T13:41:54.477Z,99737.16
2023-05-06T13:46:57.409Z,99737.06
2023-05-06T13:52:00.463Z,99745.47
2023-05-06T13:57:03.684Z,99740.66
2023-05-06T14:02:09.345Z,99746.56
2023-05-06T14:07:12.718Z,99748.69
2023-05-06T14:12:16.445Z,99741.84
2023-05-06T14:17:19.402Z,99758.53
2023-05-06T14:22:22.394Z,99760.09
2023-05-06T14:27:25.230Z,99748.94
2023-05-06T14:32:28.141Z,99767.13
2023-05-06T14:37:31.136Z,99749.25
2023-05-06T14:42:35.994Z,99780.94
2023-05-06T14:47:40.294Z,99778.59
2023-05-06T14:52:43.276Z,99785.16
2023-05-06T14:57:46.190Z,99784.31
2023-05-06T15:02:49.252Z,99788.53
2023-05-06T15:07:52.335Z,99794.41
2023-05-06T15:12:55.441Z,99796.41
2023-05-06T15:17:58.499Z,99797.06
2023-05-06T15:23:01.468Z,99806.16
2023-05-06T15:28:05.295Z,99807.28
2023-05-06T15:33:09.208Z,99788.66
2023-05-06T15:38:12.217Z,99800.28
2023-05-06T15:43:37.705Z,99806.91
2023-05-06T15:48:41.876Z,99803.78
2023-05-06T15:53:45.058Z,99809.91
2023-05-06T15:58:48.006Z,99816.53
2023-05-06T16:03:51.472Z,99824.00
2023-05-06T16:08:54.481Z,99823.72
2023-05-06T16:13:57.597Z,99832.91
2023-05-06T16:19:00.607Z,99833.34
2023-05-06T16:24:03.730Z,99842.34
2023-05-06T16:29:06.898Z,99842.75
2023-05-06T16:34:09.817Z,99860.81
2023-05-06T16:39:13.145Z,99857.44
2023-05-06T16:44:16.537Z,99854.31
2023-05-06T16:49:21.228Z,99858.25
2023-05-06T16:54:24.277Z,99878.00
2023-05-06T16:59:27.298Z,99882.31
2023-05-06T17:04:30.375Z,99873.94
2023-05-06T17:09:33.354Z,99880.16
2023-05-06T17:14:36.351Z,99886.03
2023-05-06T17:19:39.197Z,99889.13
2023-05-06T17:24:42.098Z,99882.25
2023-05-06T17:29:45.491Z,99883.44
2023-05-06T17:34:48.375Z,99878.47
2023-05-06T17:39:51.355Z,99881.94
2023-05-06T17:44:55.121Z,99893.88
2023-05-06T17:49:58.725Z,99914.28
2023-05-06T17:55:15.697Z,99908.13
2023-05-06T18:00:19.873Z,99915.84
2023-05-06T18:05:24.812Z,99918.94
2023-05-06T18:10:27.838Z,99918.56
2023-05-06T18:15:30.966Z,99928.91
2023-05-06T18:20:33.905Z,99910.88
2023-05-06T18:25:36.850Z,99918.94
2023-05-06T18:30:39.739Z,99932.38
2023-05-06T18:35:42.628Z,99930.84
2023-05-06T18:40:48.414Z,99927.41
2023-05-06T18:45:52.613Z,99942.00
2023-05-06T18:50:55.532Z,99930.09
2023-05-06T18:55:58.332Z,99941.25
2023-05-06T19:01:01.328Z,99944.28
2023-05-06T19:06:10.867Z,99954.69
2023-05-06T19:11:21.441Z,99955.44
2023-05-06T19:16:24.370Z,99968.84
2023-05-06T19:21:46.033Z,99966.16
2023-05-06T19:26:49.013Z,99962.31
2023-05-06T19:31:51.912Z,99973.44
2023-05-06T19:36:54.848Z,99965.38
2023-05-06T19:41:57.858Z,99962.66
2023-05-06T19:47:01.002Z,99985.69
2023-05-06T19:52:04.076Z,99987.97
2023-05-06T19:57:07.034Z,99975.28
2023-05-06T20:02:13.561Z,99961.44
2023-05-06T20:07:17.561Z,99962.97
2023-05-06T20:12:20.449Z,99974.38
2023-05-06T20:17:23.932Z,99980.88
2023-05-06T20:22:27.369Z,99993.16
2023-05-06T20:27:30.268Z,100004.19
2023-05-06T20:32:33.528Z,100008.38
2023-05-06T20:37:36.870Z,100016.34
2023-05-06T20:42:40.465Z,100013.72
2023-05-06T20:47:43.792Z,100021.69
2023-05-06T20:52:47.594Z,100015.09
2023-05-06T20:57:50.666Z,100031.06
2023-05-06T21:02:53.601Z,100029.44
2023-05-06T21:07:56.515Z,100028.25
2023-05-06T21:12:59.709Z,100036.69
2023-05-06T21:18:03.434Z,100040.34
2023-05-06T21:23:06.436Z,100049.16
2023-05-06T21:28:09.473Z,100063.31
2023-05-06T21:33:12.646Z,100064.59
2023-05-06T21:38:15.541Z,100070.03
2023-05-06T21:43:18.602Z,100068.66
2023-05-06T21:48:21.914Z,100068.44
2023-05-06T21:53:25.197Z,100074.69
2023-05-06T21:58:28.072Z,100068.25
2023-05-06T22:03:31.238Z,100059.66
2023-05-06T22:08:34.255Z,100072.88
2023-05-06T22:13:37.293Z,100083.03
2023-05-06T22:18:43.056Z,100084.44
2023-05-06T22:23:45.946Z,100098.84
2023-05-06T22:28:48.831Z,100102.38
2023-05-06T22:33:55.547Z,100099.94
2023-05-06T22:38:58.860Z,100098.97
2023-05-06T22:44:01.750Z,100107.22
2023-05-06T22:49:05.022Z,100114.66
2023-05-06T22:54:07.877Z,100107.47
2023-05-06T22:59:10.823Z,100124.16
2023-05-06T23:04:13.861Z,100122.44
2023-05-06T23:09:16.861Z,100128.31
2023-05-06T23:14:20.091Z,100136.31
2023-05-06T23:19:23.011Z,100136.19
2023-05-06T23:24:25.943Z,100137.97
2023-05-06T23:29:28.805Z,100135.75
2023-05-06T23:34:31.761Z,100142.66
2023-05-06T23:39:34.652Z,100140.88
2023-05-06T23:44:37.570Z,100143.25
2023-05-06T23:49:40.889Z,100161.41
2023-05-06T23:54:44.213Z,100164.28
2023-05-06T23:59:47.218Z,100162.56
